KOXRKSAN

Guest
Details From KOXR - Oxnard
To KSAN - San Diego Intl
Flight Number -
Tags generated
Created
Modified
Stats Distance 134 nm / 248 km
Max Altitude 15,200 ft / 4,633 m
Waypoints 3
Social Downloads 0
Likes 0
Share VATSIM

Download

Looking for another format? Having issues loading an existing format? Contact us
Advertisement - Login to hide

Notes

Basic altitude profile: - Ascent Rate: 2500ft/min - Ascent Speed: 250kts - Cruise Altitude: 35000ft - Cruise Speed: 420kts - Descent Rate: 1500ft/min - Descent Speed: 250kts Options: - Use NATs: yes - Use PACOTS: yes - Use low airways: yes - Use high airways: yes

Route

KOXR INISH KSAN

ID Type Via Altitude Latitude Longitude Leg Dist Tot Dist Heading (true) Name
O KOXR APT - 0 ft / 0 m 34.20082˚ -119.20723˚ - 0 nm - Oxnard
INISH FIX - 15,200 ft / 4,633 m 33.75391˚ -118.54132˚ 42 nm 42 nm 129° / 129° -
O KSAN APT - 0 ft / 0 m 32.73356˚ -117.18966˚ 91 nm 134 nm 132° / 132° San Diego Intl

Altitude Profile

Advertisement - Login to hide

KOXR

Details ICAO KOXR (OXR)
Name Oxnard
Region United States
Timezone America/Los_Angeles (UTC-8.0)
Stats Elevation 43 ft / 13 m (AMSL)
Location 34.200819° -119.207233°
Runways 1
Magnetic Variation 12.212° E

METAR

KOXR 110951Z AUTO 07008KT 10SM FU CLR 18/M14 A3016 RMK AO2 SLP212 T01831139

Decode

TAF

TAF KOXR 110525Z 1106/1206 07010KT P6SM BKN250 FM112100 31009KT 6SM FU SCT040 BKN250 FM120300 VRB03KT 6SM FU BKN250

Decode

Departure Runways

ID Width Length Bearing (true) Bearing (mag) Surface Threshold Offset Overrun Length
07 98 ft / 30 m 5,953 ft / 1,815 m 90.53° 78.32° Asphalt 0 ft / 0 m 0 ft / 0 m
25 98 ft / 30 m 5,953 ft / 1,815 m 270.54° 258.33° Asphalt 1,378 ft / 420 m 0 ft / 0 m

KSAN

Details ICAO KSAN (SAN)
Name San Diego Intl
Region United States
Timezone America/Los_Angeles (UTC-8.0)
Stats Elevation 17 ft / 5 m (AMSL)
Location 32.733556° -117.189658°
Runways 1
Magnetic Variation 11.526° E

METAR

KSAN 110951Z 36003KT 10SM BKN250 17/M08 A3015 RMK AO2 SLP209 T01721078

Decode

TAF

KSAN 110906Z 1109/1212 VRB03KT P6SM BKN250 FM112000 30009KT P6SM BKN250 FM120300 VRB03KT P6SM SCT250

Decode

Destination Runways

ID Width Length Bearing (true) Bearing (mag) Surface Threshold Offset Overrun Length
09 200 ft / 61 m 9,387 ft / 2,861 m 106.07° 94.54° Asphalt 699 ft / 213 m 269 ft / 82 m
27 200 ft / 61 m 9,387 ft / 2,861 m 286.08° 274.55° Asphalt 1,811 ft / 552 m 0 ft / 0 m

Approach Navaids

Runway Type Ident Frequency Range Bearing (true) Bearing (mag) Slope Elevation
09 Localiser ISAN 111.55 MHz 18 nm / 33 km 106.08° 94.55° - 17 ft / 5 m (AMSL)
09 Glidescope ISAN 111.55 MHz 10 nm / 19 km 106.08° 94.55° 3.22° 13 ft / 4 m (AMSL)
09 DME ISAN 111.55 MHz 18 nm / 33 km - - - 29 ft / 9 m (AMSL)
27 Localiser IUBR 110.90 MHz 18 nm / 33 km 286.07° 274.54° - 13 ft / 4 m (AMSL)
27 DME IUBR 110.90 MHz 18 nm / 33 km - - - 26 ft / 8 m (AMSL)